createdAt,value
2019-03-18T00:00:55.620Z,2.25
2019-03-18T00:03:24.500Z,2.33
2019-03-18T00:05:53.528Z,2.37
2019-03-18T00:08:22.429Z,2.77
2019-03-18T00:10:51.456Z,2.40
2019-03-18T00:13:20.461Z,2.60
2019-03-18T00:15:49.595Z,2.40
2019-03-18T00:18:18.592Z,2.50
2019-03-18T00:20:47.620Z,2.30
2019-03-18T00:23:16.632Z,2.35
2019-03-18T00:25:45.751Z,2.85
2019-03-18T00:28:14.608Z,2.55
2019-03-18T00:31:02.680Z,2.30
2019-03-18T00:33:31.687Z,2.52
2019-03-18T00:36:00.705Z,2.97
2019-03-18T00:38:29.711Z,3.17
2019-03-18T00:40:58.744Z,2.70
2019-03-18T00:43:27.688Z,2.50
2019-03-18T00:45:56.704Z,2.33
2019-03-18T00:48:25.699Z,2.40
2019-03-18T00:51:15.216Z,2.55
2019-03-18T00:53:44.088Z,2.30
2019-03-18T00:56:13.009Z,2.87
2019-03-18T00:58:41.878Z,2.67
2019-03-18T01:01:10.766Z,2.67
2019-03-18T01:03:39.864Z,2.42
2019-03-18T01:06:08.826Z,2.35
2019-03-18T01:08:37.942Z,2.62
2019-03-18T01:11:07.106Z,2.72
2019-03-18T01:13:36.441Z,2.80
2019-03-18T01:16:05.444Z,2.65
2019-03-18T01:18:34.494Z,2.92
2019-03-18T01:21:03.547Z,3.00
2019-03-18T01:23:51.407Z,2.70
2019-03-18T01:26:20.294Z,2.47
2019-03-18T01:28:49.521Z,2.85
2019-03-18T01:31:18.528Z,2.62
2019-03-18T01:33:47.605Z,2.70
2019-03-18T01:36:16.612Z,2.55
2019-03-18T01:38:45.543Z,2.77
2019-03-18T01:41:14.593Z,2.40
2019-03-18T01:44:02.604Z,2.90
2019-03-18T01:46:31.515Z,2.72
2019-03-18T01:49:00.392Z,2.45
2019-03-18T01:51:29.322Z,2.77
2019-03-18T01:53:58.403Z,2.20
2019-03-18T01:56:27.417Z,2.65
2019-03-18T01:58:56.346Z,2.70
2019-03-18T02:01:25.354Z,2.87
2019-03-18T02:03:54.372Z,2.70
2019-03-18T02:06:23.245Z,2.90
2019-03-18T02:08:52.186Z,2.47
2019-03-18T02:11:21.158Z,2.47
2019-03-18T02:13:50.153Z,2.00
2019-03-18T02:16:19.181Z,2.65
2019-03-18T02:18:48.283Z,2.60
2019-03-18T02:21:17.352Z,2.30
2019-03-18T02:23:46.431Z,2.35
2019-03-18T02:26:15.289Z,2.12
2019-03-18T02:28:47.197Z,2.47
2019-03-18T02:31:14.903Z,2.60
2019-03-18T02:33:43.755Z,2.55
2019-03-18T02:36:12.557Z,2.65
2019-03-18T02:38:41.453Z,2.40
2019-03-18T02:41:10.417Z,2.70
2019-03-18T02:43:39.389Z,2.25
2019-03-18T02:46:10.534Z,2.33
2019-03-18T02:48:38.916Z,2.30
2019-03-18T02:51:08.328Z,2.25
2019-03-18T02:53:38.368Z,2.37
2019-03-18T02:56:07.660Z,2.02
2019-03-18T02:58:36.963Z,2.20
2019-03-18T03:01:06.070Z,2.22
2019-03-18T03:03:37.010Z,2.02
2019-03-18T03:06:05.993Z,2.10
2019-03-18T03:08:35.913Z,2.40
2019-03-18T03:11:05.050Z,2.25
2019-03-18T03:13:33.937Z,2.37
2019-03-18T03:16:02.749Z,2.58
2019-03-18T03:18:31.858Z,2.30
2019-03-18T03:21:01.081Z,2.37
2019-03-18T03:23:30.059Z,2.30
2019-03-18T03:25:59.096Z,2.37
2019-03-18T03:28:28.009Z,2.33
2019-03-18T03:30:56.819Z,2.05
2019-03-18T03:33:25.850Z,2.00
2019-03-18T03:35:54.931Z,2.15
2019-03-18T03:38:43.085Z,2.20
2019-03-18T03:41:11.880Z,1.98
2019-03-18T03:43:40.905Z,2.10
2019-03-18T03:46:09.908Z,2.30
2019-03-18T03:48:38.805Z,2.27
2019-03-18T03:51:07.646Z,2.00
2019-03-18T03:53:36.500Z,2.27
2019-03-18T03:56:05.827Z,2.15
2019-03-18T03:58:34.694Z,2.10
2019-03-18T04:01:03.702Z,2.02
2019-03-18T04:03:38.748Z,2.30
2019-03-18T04:06:03.297Z,2.10
2019-03-18T04:08:32.450Z,1.98
2019-03-18T04:11:01.423Z,2.20
2019-03-18T04:13:30.363Z,2.08
2019-03-18T04:15:59.341Z,2.25
2019-03-18T04:18:28.372Z,2.12
2019-03-18T04:20:57.375Z,2.00
2019-03-18T04:23:26.389Z,2.00
2019-03-18T04:25:55.428Z,1.90
2019-03-18T04:28:24.492Z,2.00
2019-03-18T04:30:53.330Z,1.90
2019-03-18T04:33:22.245Z,2.22
2019-03-18T04:35:51.220Z,2.05
2019-03-18T04:38:20.158Z,1.82
2019-03-18T04:40:49.174Z,2.15
2019-03-18T04:43:18.147Z,1.80
2019-03-18T04:45:47.068Z,2.00
2019-03-18T04:48:15.926Z,2.08
2019-03-18T04:50:44.772Z,2.45
2019-03-18T04:53:13.789Z,2.27
2019-03-18T04:55:42.612Z,2.27
2019-03-18T04:58:11.573Z,2.25
2019-03-18T05:00:40.580Z,2.20
2019-03-18T05:03:09.576Z,2.15
2019-03-18T05:05:38.552Z,2.45
2019-03-18T05:08:07.439Z,2.30
2019-03-18T05:10:36.711Z,2.42
2019-03-18T05:13:05.675Z,2.60
2019-03-18T05:15:34.661Z,2.45
2019-03-18T05:18:03.694Z,2.40
2019-03-18T05:20:32.609Z,2.33
2019-03-18T05:23:01.402Z,2.47
2019-03-18T05:25:30.280Z,2.58
2019-03-18T05:27:59.140Z,2.50
2019-03-18T05:30:28.119Z,2.05
2019-03-18T05:32:56.988Z,2.70
2019-03-18T05:35:25.825Z,2.72
2019-03-18T05:37:54.843Z,2.65
2019-03-18T05:40:23.665Z,2.60
2019-03-18T05:42:52.590Z,2.60
2019-03-18T05:45:21.690Z,3.00
2019-03-18T05:47:50.602Z,2.70
2019-03-18T05:50:19.540Z,2.60
2019-03-18T05:52:48.646Z,2.50
2019-03-18T05:55:17.874Z,2.77
2019-03-18T05:57:46.879Z,2.75
2019-03-18T06:00:15.912Z,2.60
2019-03-18T06:02:47.058Z,3.35
2019-03-18T06:05:15.916Z,4.15
2019-03-18T06:07:45.381Z,4.60
2019-03-18T06:10:15.096Z,5.47
2019-03-18T06:12:44.220Z,5.22
2019-03-18T06:15:13.039Z,6.40
2019-03-18T06:17:51.569Z,7.15
